createdAt,value
2022-11-21T09:10:11.782Z,80.50
2022-11-21T09:12:39.874Z,80.50
2022-11-21T09:15:28.338Z,80.40
2022-11-21T09:18:04.419Z,78.90
2022-11-21T09:20:34.054Z,78.20
2022-11-21T09:23:05.535Z,77.50
2022-11-21T09:25:36.249Z,78.40
2022-11-21T09:28:06.339Z,76.70
2022-11-21T09:30:35.069Z,77.90
2022-11-21T09:33:07.294Z,78.20
2022-11-21T09:35:37.449Z,76.40
2022-11-21T09:38:07.496Z,75.60
2022-11-21T09:40:37.990Z,75.20
2022-11-21T09:43:36.299Z,75.20
2022-11-21T09:46:08.592Z,76.20
2022-11-21T09:48:47.838Z,73.90
2022-11-21T09:51:19.209Z,73.80
2022-11-21T09:53:57.681Z,73.50
2022-11-21T09:56:28.579Z,72.50
2022-11-21T09:59:08.375Z,72.70
2022-11-21T10:01:38.356Z,72.20
2022-11-21T10:04:06.748Z,72.50
2022-11-21T10:06:43.273Z,70.90
2022-11-21T10:09:24.443Z,71.30
2022-11-21T10:12:21.557Z,72.30
2022-11-21T10:15:05.302Z,72.10
2022-11-21T10:17:40.810Z,71.20
2022-11-21T10:20:23.293Z,72.50
2022-11-21T10:23:11.836Z,72.30
2022-11-21T10:25:40.660Z,71.70
2022-11-21T10:28:19.931Z,71.00
2022-11-21T10:30:51.774Z,71.30
2022-11-21T10:33:27.608Z,71.80
2022-11-21T10:35:59.723Z,72.50
2022-11-21T10:38:29.986Z,72.40
2022-11-21T10:41:04.530Z,70.70
2022-11-21T10:43:58.091Z,72.30
2022-11-21T10:46:26.243Z,71.90
2022-11-21T10:48:58.499Z,71.60
2022-11-21T10:51:40.518Z,71.00
2022-11-21T10:54:28.371Z,70.60
2022-11-21T10:57:02.456Z,69.80
2022-11-21T10:59:34.271Z,70.00
2022-11-21T11:02:03.886Z,70.30
2022-11-21T11:04:41.578Z,70.20
2022-11-21T11:07:25.777Z,71.20
2022-11-21T11:10:14.355Z,72.40
2022-11-21T11:13:02.046Z,72.40
2022-11-21T11:15:39.312Z,72.00
2022-11-21T11:18:14.773Z,70.40
2022-11-21T11:20:46.189Z,71.20
2022-11-21T11:23:24.128Z,70.40
2022-11-21T11:25:54.916Z,72.30
2022-11-21T11:28:24.561Z,72.90
2022-11-21T11:30:56.552Z,72.70
2022-11-21T11:33:36.883Z,73.20
2022-11-21T11:36:14.013Z,74.00
2022-11-21T11:38:47.176Z,74.90
2022-11-21T11:41:51.890Z,74.10
2022-11-21T11:44:41.630Z,73.40
2022-11-21T11:47:32.812Z,73.30
2022-11-21T11:50:13.503Z,72.50
2022-11-21T11:52:55.444Z,73.00
2022-11-21T11:55:29.831Z,72.00
2022-11-21T11:58:02.282Z,71.10
2022-11-21T12:00:38.252Z,71.80
2022-11-21T12:03:15.255Z,69.90
2022-11-21T12:05:58.488Z,69.00
2022-11-21T12:08:42.490Z,70.10
2022-11-21T12:11:38.064Z,69.40
2022-11-21T12:14:36.288Z,70.40
2022-11-21T12:17:07.654Z,69.70
2022-11-21T12:19:39.061Z,68.10
2022-11-21T12:22:08.764Z,68.50
2022-11-21T12:24:42.593Z,68.60
2022-11-21T12:27:24.439Z,70.60
2022-11-21T12:30:11.222Z,70.30
2022-11-21T12:32:52.798Z,72.10
2022-11-21T12:35:35.548Z,72.20
2022-11-21T12:38:18.102Z,70.70
2022-11-21T12:40:59.169Z,70.60
2022-11-21T12:43:35.327Z,70.40
2022-11-21T12:46:19.686Z,71.00
2022-11-21T12:49:15.657Z,72.00
2022-11-21T12:52:20.566Z,72.70
2022-11-21T12:55:18.047Z,73.80
2022-11-21T12:58:01.492Z,74.20
2022-11-21T13:00:38.649Z,76.30
2022-11-21T13:03:28.181Z,76.30
2022-11-21T13:05:58.243Z,74.20
2022-11-21T13:08:30.696Z,74.30
2022-11-21T13:11:19.886Z,74.60
2022-11-21T13:13:56.445Z,73.70
2022-11-21T13:16:37.673Z,73.90
2022-11-21T13:19:22.448Z,74.60
2022-11-21T13:21:52.575Z,75.10
2022-11-21T13:24:59.687Z,74.80
2022-11-21T13:27:38.430Z,75.10
2022-11-21T13:30:23.236Z,75.30
2022-11-21T13:32:52.537Z,74.80
2022-11-21T13:35:58.864Z,74.10
2022-11-21T13:38:26.976Z,73.60
2022-11-21T13:41:16.297Z,71.10
2022-11-21T13:43:44.912Z,70.00
2022-11-21T13:46:51.366Z,68.80
2022-11-21T13:49:23.119Z,67.70
2022-11-21T13:51:54.922Z,68.90
2022-11-21T13:55:07.726Z,69.60
2022-11-21T13:58:03.500Z,69.60
2022-11-21T14:00:42.905Z,69.70
2022-11-21T14:03:41.713Z,69.10
2022-11-21T14:06:28.270Z,66.70
2022-11-21T14:09:23.027Z,64.70
2022-11-21T14:11:54.559Z,64.40
2022-11-21T14:14:37.799Z,66.10
2022-11-21T14:17:34.664Z,65.40
2022-11-21T14:20:09.974Z,66.20
2022-11-21T14:22:45.703Z,65.80
2022-11-21T14:25:18.701Z,66.00
2022-11-21T14:27:50.842Z,65.00
2022-11-21T14:30:35.787Z,65.70
2022-11-21T14:33:34.519Z,65.80
2022-11-21T14:36:06.334Z,66.50
2022-11-21T14:38:41.205Z,66.70
2022-11-21T14:41:31.346Z,67.80
2022-11-21T14:44:04.296Z,66.50
2022-11-21T14:46:36.125Z,67.30
2022-11-21T14:49:25.587Z,67.20
2022-11-21T14:51:59.932Z,67.50
2022-11-21T14:54:33.621Z,68.20
2022-11-21T14:57:04.756Z,68.40
2022-11-21T14:59:36.644Z,69.10
2022-11-21T15:02:13.588Z,70.10
2022-11-21T15:04:44.312Z,72.50
2022-11-21T15:07:20.722Z,72.80
2022-11-21T15:12:50.482Z,73.40
2022-11-21T15:15:29.485Z,74.20
2022-11-21T15:18:26.420Z,74.80
2022-11-21T15:20:52.383Z,75.00
2022-11-21T15:23:30.748Z,75.70
2022-11-21T15:28:58.322Z,76.80
2022-11-21T15:31:26.865Z,77.00
2022-11-21T15:37:04.553Z,77.50
2022-11-21T15:39:34.112Z,78.00
2022-11-21T15:42:29.857Z,78.70
2022-11-21T15:45:00.005Z,79.80
2022-11-21T15:47:28.605Z,80.00
2022-11-21T15:49:58.159Z,80.20
2022-11-21T15:52:26.374Z,80.10
2022-11-21T15:54:56.541Z,80.20
2022-11-21T15:57:13.905Z,76.30
2022-11-21T15:57:24.886Z,80.60
2022-11-21T15:59:53.129Z,81.40
2022-11-21T16:02:21.296Z,82.50
2022-11-21T16:04:52.884Z,83.90
2022-11-21T16:07:22.449Z,84.90
2022-11-21T16:09:55.372Z,85.70
2022-11-21T16:12:23.669Z,87.00
2022-11-21T16:14:51.706Z,86.90
2022-11-21T16:17:20.019Z,87.60
2022-11-21T16:19:49.507Z,87.90
2022-11-21T16:22:17.994Z,88.30
2022-11-21T16:24:47.598Z,88.70
2022-11-21T16:27:16.046Z,89.20
2022-11-21T16:29:44.319Z,89.80
2022-11-21T16:32:12.491Z,91.20
2022-11-21T16:34:40.664Z,92.10
2022-11-21T16:37:08.964Z,92.40
2022-11-21T16:39:37.246Z,93.00
2022-11-21T16:42:10.670Z,93.60
2022-11-21T16:44:38.961Z,94.50
2022-11-21T16:47:08.685Z,95.10
2022-11-21T16:49:42.863Z,96.30
2022-11-21T16:52:11.399Z,96.90
2022-11-21T16:54:42.470Z,97.90
2022-11-21T16:57:12.276Z,98.60
2022-11-21T16:59:40.363Z,98.10
2022-11-21T17:02:08.520Z,97.20
2022-11-21T17:04:37.708Z,95.80
2022-11-21T17:07:05.856Z,95.20
2022-11-21T17:09:36.542Z,95.00
2022-11-21T17:12:07.235Z,96.40
2022-11-21T17:14:36.854Z,96.30
2022-11-21T17:17:05.048Z,97.10
2022-11-21T17:19:33.113Z,98.00
2022-11-21T17:22:01.391Z,98.40
2022-11-21T17:24:32.128Z,99.60
2022-11-21T17:27:02.462Z,99.90
2022-11-21T17:29:31.015Z,99.90
2022-11-21T17:32:00.638Z,99.90
2022-11-21T17:34:32.955Z,99.90
2022-11-21T17:37:01.321Z,99.90
2022-11-21T17:39:30.396Z,99.90
2022-11-21T17:41:59.936Z,99.90
2022-11-21T17:44:28.606Z,99.90
2022-11-21T17:46:59.141Z,99.90
2022-11-21T17:49:37.016Z,99.90
2022-11-21T17:52:07.169Z,99.90
2022-11-21T17:54:37.038Z,99.90
2022-11-21T17:57:05.285Z,99.90
2022-11-21T17:59:34.788Z,99.90
2022-11-21T18:02:03.086Z,99.90
2022-11-21T18:04:34.501Z,99.90
2022-11-21T18:07:03.287Z,99.90
2022-11-21T18:09:31.501Z,99.90
2022-11-21T18:12:00.495Z,99.90
2022-11-21T18:14:28.687Z,99.90
2022-11-21T18:16:57.024Z,99.90
2022-11-21T18:19:25.213Z,99.90
2022-11-21T18:21:54.595Z,99.90
2022-11-21T18:24:22.650Z,99.90
2022-11-21T18:26:50.789Z,99.90
2022-11-21T18:29:36.128Z,99.90
2022-11-21T18:32:05.971Z,99.90
2022-11-21T18:34:34.126Z,99.90
2022-11-21T18:37:04.573Z,99.90
2022-11-21T18:39:32.896Z,99.90
2022-11-21T18:42:01.198Z,99.90
2022-11-21T18:44:29.326Z,99.90
2022-11-21T18:46:57.507Z,99.90
2022-11-21T18:49:26.799Z,99.90
2022-11-21T18:51:57.826Z,99.90
2022-11-21T18:54:27.425Z,99.90
2022-11-21T18:56:58.053Z,99.90
2022-11-21T18:59:26.229Z,99.90
2022-11-21T19:01:54.428Z,99.90
2022-11-21T19:04:22.594Z,99.90
2022-11-21T19:06:50.816Z,99.90
2022-11-21T19:09:18.847Z,99.90
2022-11-21T19:11:48.298Z,99.90
2022-11-21T19:14:16.868Z,99.90
2022-11-21T19:16:47.198Z,99.90
2022-11-21T19:19:34.489Z,99.90
2022-11-21T19:22:04.687Z,99.90
2022-11-21T19:24:33.338Z,99.90
2022-11-21T19:27:05.216Z,99.90
2022-11-21T19:29:33.255Z,99.90
2022-11-21T19:32:01.460Z,99.90
2022-11-21T19:34:29.621Z,99.90
2022-11-21T19:36:57.726Z,99.90
2022-11-21T19:39:25.823Z,99.90
2022-11-21T19:41:53.974Z,99.90
2022-11-21T19:44:23.482Z,99.90
2022-11-21T19:46:51.557Z,99.90
2022-11-21T19:49:20.177Z,99.90
2022-11-21T19:51:48.311Z,99.90
2022-11-21T19:54:16.958Z,99.90
2022-11-21T19:56:45.108Z,99.90
2022-11-21T19:59:14.733Z,99.90
2022-11-21T20:01:49.495Z,99.90
2022-11-21T20:04:19.431Z,99.90
2022-11-21T20:06:47.767Z,99.90
2022-11-21T20:09:18.229Z,99.90
2022-11-21T20:11:48.144Z,99.90
2022-11-21T20:14:22.275Z,99.90
2022-11-21T20:16:53.812Z,99.90
2022-11-21T20:19:24.972Z,99.90
2022-11-21T20:21:53.559Z,99.90
2022-11-21T20:24:21.755Z,99.70
2022-11-21T20:26:49.812Z,99.90
2022-11-21T20:29:18.013Z,99.50
2022-11-21T20:31:48.122Z,99.00
2022-11-21T20:34:17.713Z,97.60
2022-11-21T20:36:47.949Z,96.80
2022-11-21T20:39:17.633Z,96.20
2022-11-21T20:41:47.161Z,95.90
2022-11-21T20:47:09.351Z,95.30
2022-11-21T20:49:39.599Z,94.80
2022-11-21T20:54:55.787Z,94.50
2022-11-21T20:57:23.973Z,94.40
2022-11-21T20:59:52.076Z,94.20
2022-11-21T21:02:20.170Z,94.30
2022-11-21T21:04:49.620Z,94.00
2022-11-21T21:07:17.834Z,93.70
2022-11-21T21:09:49.192Z,93.50
2022-11-21T21:12:17.366Z,93.30
2022-11-21T21:14:45.471Z,93.30
2022-11-21T21:17:13.638Z,93.40
2022-11-21T21:19:43.854Z,93.50
2022-11-21T21:22:13.294Z,93.40
2022-11-21T21:24:41.636Z,93.60
2022-11-21T21:27:09.738Z,93.90
2022-11-21T21:29:38.068Z,94.10
2022-11-21T21:32:06.679Z,95.50
2022-11-21T21:34:34.850Z,95.10
2022-11-21T21:37:02.890Z,95.40
2022-11-21T21:39:32.515Z,95.60
2022-11-21T21:42:00.468Z,95.70
2022-11-21T21:44:33.445Z,96.20
2022-11-21T21:47:02.018Z,96.20
2022-11-21T21:49:30.252Z,96.50
2022-11-21T21:51:58.331Z,97.10
2022-11-21T21:54:26.413Z,97.10
2022-11-21T21:56:55.973Z,97.40
2022-11-21T21:59:26.670Z,97.40
2022-11-21T22:01:54.776Z,97.50
2022-11-21T22:04:23.042Z,97.90
2022-11-21T22:06:51.211Z,98.00
2022-11-21T22:09:19.373Z,98.50
2022-11-21T22:11:47.439Z,98.50
2022-11-21T22:14:17.943Z,98.70
2022-11-21T22:16:46.372Z,99.30
2022-11-21T22:19:15.505Z,99.30
2022-11-21T22:21:44.263Z,99.30
2022-11-21T22:24:25.372Z,98.90
2022-11-21T22:26:53.931Z,98.40
2022-11-21T22:29:23.360Z,98.40
2022-11-21T22:31:51.861Z,97.30
2022-11-21T22:34:20.241Z,96.90
2022-11-21T22:36:48.357Z,96.50
2022-11-21T22:39:17.396Z,96.80
2022-11-21T22:41:45.504Z,96.40
2022-11-21T22:44:13.736Z,96.50
2022-11-21T22:46:43.171Z,96.60
2022-11-21T22:49:11.207Z,96.80
2022-11-21T22:51:41.617Z,96.60
2022-11-21T22:54:09.994Z,96.60
2022-11-21T22:56:38.021Z,96.50
2022-11-21T22:59:06.108Z,96.70
2022-11-21T23:01:35.080Z,96.70
2022-11-21T23:04:05.042Z,97.00
2022-11-21T23:06:33.223Z,97.10
2022-11-21T23:09:01.282Z,97.00
2022-11-21T23:11:40.308Z,96.60
2022-11-21T23:14:09.344Z,96.30
2022-11-21T23:16:37.391Z,95.80
2022-11-21T23:19:07.011Z,95.80
2022-11-21T23:21:35.152Z,95.70
2022-11-21T23:24:06.426Z,95.80
2022-11-21T23:26:34.456Z,96.00
2022-11-21T23:29:08.876Z,95.90
2022-11-21T23:31:37.704Z,96.00
2022-11-21T23:34:11.284Z,96.30
2022-11-21T23:36:39.630Z,96.00
2022-11-21T23:39:07.651Z,96.20
2022-11-21T23:41:36.105Z,96.30
2022-11-21T23:44:04.384Z,96.70
2022-11-21T23:46:32.858Z,97.00
2022-11-21T23:49:01.014Z,97.30
2022-11-21T23:51:30.437Z,97.40
2022-11-21T23:53:58.480Z,97.70
2022-11-21T23:56:26.584Z,97.80
2022-11-21T23:58:54.695Z,98.30
